sensor_id;sensor_type;location;lat;lon;timestamp;P1;durP1;ratioP1;P2;durP2;ratioP2
11955;SDS011;6038;52.276;10.530;2023-06-05T00:01:19;9.73;;;2.00;;
11955;SDS011;6038;52.276;10.530;2023-06-05T00:03:45;2.67;;;1.90;;
11955;SDS011;6038;52.276;10.530;2023-06-05T00:06:11;2.70;;;1.83;;
11955;SDS011;6038;52.276;10.530;2023-06-05T00:08:37;3.67;;;2.07;;
11955;SDS011;6038;52.276;10.530;2023-06-05T00:11:03;5.10;;;2.20;;
11955;SDS011;6038;52.276;10.530;2023-06-05T00:13:29;4.00;;;2.27;;
11955;SDS011;6038;52.276;10.530;2023-06-05T00:15:55;3.63;;;2.40;;
11955;SDS011;6038;52.276;10.530;2023-06-05T00:18:21;2.87;;;2.33;;
11955;SDS011;6038;52.276;10.530;2023-06-05T00:20:47;3.63;;;2.43;;
11955;SDS011;6038;52.276;10.530;2023-06-05T00:23:13;3.83;;;2.40;;
11955;SDS011;6038;52.276;10.530;2023-06-05T00:25:39;4.07;;;2.43;;
11955;SDS011;6038;52.276;10.530;2023-06-05T00:28:05;3.67;;;2.20;;
11955;SDS011;6038;52.276;10.530;2023-06-05T00:30:31;2.90;;;2.30;;
11955;SDS011;6038;52.276;10.530;2023-06-05T00:32:57;3.40;;;1.93;;
11955;SDS011;6038;52.276;10.530;2023-06-05T00:35:23;3.23;;;2.00;;
11955;SDS011;6038;52.276;10.530;2023-06-05T00:37:49;2.67;;;2.00;;
11955;SDS011;6038;52.276;10.530;2023-06-05T00:40:15;2.67;;;1.90;;
11955;SDS011;6038;52.276;10.530;2023-06-05T00:42:41;2.90;;;1.97;;
11955;SDS011;6038;52.276;10.530;2023-06-05T00:45:07;3.60;;;1.90;;
11955;SDS011;6038;52.276;10.530;2023-06-05T00:47:33;3.43;;;1.80;;
11955;SDS011;6038;52.276;10.530;2023-06-05T00:50:00;3.53;;;1.70;;
11955;SDS011;6038;52.276;10.530;2023-06-05T00:52:26;2.10;;;1.70;;
11955;SDS011;6038;52.276;10.530;2023-06-05T00:54:53;2.97;;;1.80;;
11955;SDS011;6038;52.276;10.530;2023-06-05T00:57:19;5.27;;;2.00;;
11955;SDS011;6038;52.276;10.530;2023-06-05T00:59:49;2.13;;;1.80;;
11955;SDS011;6038;52.276;10.530;2023-06-05T01:02:15;2.07;;;1.60;;
11955;SDS011;6038;52.276;10.530;2023-06-05T01:04:41;2.00;;;1.70;;
11955;SDS011;6038;52.276;10.530;2023-06-05T01:07:08;2.97;;;1.83;;
11955;SDS011;6038;52.276;10.530;2023-06-05T01:09:35;3.17;;;1.80;;
11955;SDS011;6038;52.276;10.530;2023-06-05T01:12:03;2.80;;;1.93;;
11955;SDS011;6038;52.276;10.530;2023-06-05T01:14:31;2.17;;;1.67;;
11955;SDS011;6038;52.276;10.530;2023-06-05T01:16:59;2.17;;;1.80;;
11955;SDS011;6038;52.276;10.530;2023-06-05T01:19:28;2.47;;;1.70;;
11955;SDS011;6038;52.276;10.530;2023-06-05T01:21:56;3.63;;;2.10;;
11955;SDS011;6038;52.276;10.530;2023-06-05T01:24:22;2.90;;;1.90;;
11955;SDS011;6038;52.276;10.530;2023-06-05T01:29:27;2.47;;;1.73;;
11955;SDS011;6038;52.276;10.530;2023-06-05T01:31:55;2.33;;;1.80;;
11955;SDS011;6038;52.276;10.530;2023-06-05T01:34:22;4.47;;;1.97;;
11955;SDS011;6038;52.276;10.530;2023-06-05T01:36:49;4.53;;;1.90;;
11955;SDS011;6038;52.276;10.530;2023-06-05T01:39:16;1.83;;;1.67;;
11955;SDS011;6038;52.276;10.530;2023-06-05T01:41:43;2.37;;;2.10;;
11955;SDS011;6038;52.276;10.530;2023-06-05T01:44:09;3.73;;;1.80;;
11955;SDS011;6038;52.276;10.530;2023-06-05T01:46:39;2.17;;;1.80;;
11955;SDS011;6038;52.276;10.530;2023-06-05T01:49:05;2.37;;;1.77;;
11955;SDS011;6038;52.276;10.530;2023-06-05T01:51:31;3.03;;;1.90;;
11955;SDS011;6038;52.276;10.530;2023-06-05T01:53:57;2.53;;;1.63;;
11955;SDS011;6038;52.276;10.530;2023-06-05T01:56:23;2.77;;;1.77;;
11955;SDS011;6038;52.276;10.530;2023-06-05T01:58:49;2.67;;;1.87;;
11955;SDS011;6038;52.276;10.530;2023-06-05T02:01:18;4.00;;;1.87;;
11955;SDS011;6038;52.276;10.530;2023-06-05T02:03:47;2.83;;;1.93;;
11955;SDS011;6038;52.276;10.530;2023-06-05T02:06:15;3.53;;;2.07;;
11955;SDS011;6038;52.276;10.530;2023-06-05T02:08:41;2.30;;;1.50;;
11955;SDS011;6038;52.276;10.530;2023-06-05T02:11:07;2.83;;;1.80;;
11955;SDS011;6038;52.276;10.530;2023-06-05T02:13:36;3.63;;;1.97;;
11955;SDS011;6038;52.276;10.530;2023-06-05T02:16:03;2.07;;;1.60;;
11955;SDS011;6038;52.276;10.530;2023-06-05T02:18:29;2.23;;;2.00;;
11955;SDS011;6038;52.276;10.530;2023-06-05T02:20:55;2.40;;;1.70;;
11955;SDS011;6038;52.276;10.530;2023-06-05T02:23:22;4.33;;;1.70;;
11955;SDS011;6038;52.276;10.530;2023-06-05T02:25:48;2.53;;;1.80;;
11955;SDS011;6038;52.276;10.530;2023-06-05T02:28:14;4.20;;;2.23;;
11955;SDS011;6038;52.276;10.530;2023-06-05T02:30:41;3.37;;;2.00;;
11955;SDS011;6038;52.276;10.530;2023-06-05T02:33:09;4.67;;;1.80;;
11955;SDS011;6038;52.276;10.530;2023-06-05T02:35:36;2.83;;;1.97;;
11955;SDS011;6038;52.276;10.530;2023-06-05T02:38:02;4.03;;;1.93;;
11955;SDS011;6038;52.276;10.530;2023-06-05T02:40:30;2.73;;;2.03;;
11955;SDS011;6038;52.276;10.530;2023-06-05T02:42:56;4.00;;;1.80;;
11955;SDS011;6038;52.276;10.530;2023-06-05T02:45:22;2.87;;;1.90;;
11955;SDS011;6038;52.276;10.530;2023-06-05T02:47:48;2.93;;;1.80;;
11955;SDS011;6038;52.276;10.530;2023-06-05T02:50:14;4.20;;;1.90;;
11955;SDS011;6038;52.276;10.530;2023-06-05T02:52:40;3.03;;;1.87;;
11955;SDS011;6038;52.276;10.530;2023-06-05T02:55:07;2.43;;;1.77;;
11955;SDS011;6038;52.276;10.530;2023-06-05T02:57:33;4.53;;;2.00;;
11955;SDS011;6038;52.276;10.530;2023-06-05T03:00:06;4.10;;;2.00;;
11955;SDS011;6038;52.276;10.530;2023-06-05T03:02:32;2.53;;;1.77;;
11955;SDS011;6038;52.276;10.530;2023-06-05T03:05:01;2.30;;;2.00;;
11955;SDS011;6038;52.276;10.530;2023-06-05T03:07:27;2.37;;;1.80;;
11955;SDS011;6038;52.276;10.530;2023-06-05T03:09:53;3.20;;;2.10;;
11955;SDS011;6038;52.276;10.530;2023-06-05T03:12:19;4.13;;;2.20;;
11955;SDS011;6038;52.276;10.530;2023-06-05T03:14:45;5.00;;;1.90;;
11955;SDS011;6038;52.276;10.530;2023-06-05T03:17:11;3.57;;;2.00;;
11955;SDS011;6038;52.276;10.530;2023-06-05T03:19:37;2.33;;;1.80;;
11955;SDS011;6038;52.276;10.530;2023-06-05T03:22:03;4.20;;;1.80;;
11955;SDS011;6038;52.276;10.530;2023-06-05T03:24:30;3.13;;;1.93;;
11955;SDS011;6038;52.276;10.530;2023-06-05T03:26:56;2.50;;;1.80;;
11955;SDS011;6038;52.276;10.530;2023-06-05T03:29:22;2.13;;;1.80;;
11955;SDS011;6038;52.276;10.530;2023-06-05T03:31:48;3.97;;;2.00;;
11955;SDS011;6038;52.276;10.530;2023-06-05T03:34:14;2.53;;;1.87;;
11955;SDS011;6038;52.276;10.530;2023-06-05T03:36:40;4.07;;;2.47;;
11955;SDS011;6038;52.276;10.530;2023-06-05T03:39:06;2.80;;;1.90;;
11955;SDS011;6038;52.276;10.530;2023-06-05T03:41:32;2.10;;;1.90;;
11955;SDS011;6038;52.276;10.530;2023-06-05T03:43:58;2.93;;;2.00;;
11955;SDS011;6038;52.276;10.530;2023-06-05T03:46:24;3.77;;;2.10;;
11955;SDS011;6038;52.276;10.530;2023-06-05T03:48:54;3.63;;;2.23;;
11955;SDS011;6038;52.276;10.530;2023-06-05T03:51:23;2.80;;;1.90;;
11955;SDS011;6038;52.276;10.530;2023-06-05T03:53:52;7.07;;;2.30;;
11955;SDS011;6038;52.276;10.530;2023-06-05T03:56:20;3.23;;;2.13;;
11955;SDS011;6038;52.276;10.530;2023-06-05T03:58:46;3.10;;;2.17;;
11955;SDS011;6038;52.276;10.530;2023-06-05T04:01:13;6.43;;;2.37;;
11955;SDS011;6038;52.276;10.530;2023-06-05T04:03:39;6.37;;;2.53;;
11955;SDS011;6038;52.276;10.530;2023-06-05T04:06:05;3.00;;;1.97;;
11955;SDS011;6038;52.276;10.530;2023-06-05T04:08:33;3.70;;;2.40;;
11955;SDS011;6038;52.276;10.530;2023-06-05T04:10:59;4.87;;;2.20;;
11955;SDS011;6038;52.276;10.530;2023-06-05T04:13:25;4.93;;;2.10;;
11955;SDS011;6038;52.276;10.530;2023-06-05T04:15:51;5.37;;;2.33;;
11955;SDS011;6038;52.276;10.530;2023-06-05T04:18:17;3.30;;;2.20;;
11955;SDS011;6038;52.276;10.530;2023-06-05T04:20:43;4.20;;;2.10;;
11955;SDS011;6038;52.276;10.530;2023-06-05T04:23:09;4.00;;;2.00;;
11955;SDS011;6038;52.276;10.530;2023-06-05T04:25:35;4.50;;;2.10;;
11955;SDS011;6038;52.276;10.530;2023-06-05T04:28:01;6.30;;;2.37;;
11955;SDS011;6038;52.276;10.530;2023-06-05T04:30:28;4.10;;;2.30;;
11955;SDS011;6038;52.276;10.530;2023-06-05T04:32:54;4.37;;;2.30;;
11955;SDS011;6038;52.276;10.530;2023-06-05T04:35:21;4.53;;;2.10;;
11955;SDS011;6038;52.276;10.530;2023-06-05T04:37:47;5.53;;;2.10;;
11955;SDS011;6038;52.276;10.530;2023-06-05T04:40:13;4.47;;;2.00;;
11955;SDS011;6038;52.276;10.530;2023-06-05T04:42:39;4.20;;;2.30;;
11955;SDS011;6038;52.276;10.530;2023-06-05T04:45:06;5.63;;;2.30;;
11955;SDS011;6038;52.276;10.530;2023-06-05T04:47:33;4.60;;;2.10;;
11955;SDS011;6038;52.276;10.530;2023-06-05T04:49:59;4.23;;;2.07;;
11955;SDS011;6038;52.276;10.530;2023-06-05T04:52:28;4.37;;;2.50;;
11955;SDS011;6038;52.276;10.530;2023-06-05T04:54:54;3.67;;;2.40;;
11955;SDS011;6038;52.276;10.530;2023-06-05T04:57:21;3.13;;;2.30;;
11955;SDS011;6038;52.276;10.530;2023-06-05T04:59:49;2.93;;;2.00;;
11955;SDS011;6038;52.276;10.530;2023-06-05T05:02:16;4.60;;;2.10;;
11955;SDS011;6038;52.276;10.530;2023-06-05T05:04:42;3.23;;;2.10;;
11955;SDS011;6038;52.276;10.530;2023-06-05T05:07:08;6.17;;;2.40;;
11955;SDS011;6038;52.276;10.530;2023-06-05T05:09:40;3.27;;;2.10;;
11955;SDS011;6038;52.276;10.530;2023-06-05T05:12:06;3.47;;;1.90;;
11955;SDS011;6038;52.276;10.530;2023-06-05T05:14:32;3.73;;;2.43;;
11955;SDS011;6038;52.276;10.530;2023-06-05T05:16:58;4.33;;;2.80;;
11955;SDS011;6038;52.276;10.530;2023-06-05T05:19:26;6.53;;;2.40;;
11955;SDS011;6038;52.276;10.530;2023-06-05T05:21:52;4.50;;;2.47;;
11955;SDS011;6038;52.276;10.530;2023-06-05T05:24:18;4.33;;;2.33;;
11955;SDS011;6038;52.276;10.530;2023-06-05T05:26:44;3.47;;;2.57;;
11955;SDS011;6038;52.276;10.530;2023-06-05T05:29:11;3.60;;;2.17;;
11955;SDS011;6038;52.276;10.530;2023-06-05T05:31:37;2.93;;;2.40;;
11955;SDS011;6038;52.276;10.530;2023-06-05T05:34:03;4.10;;;2.20;;
11955;SDS011;6038;52.276;10.530;2023-06-05T05:36:30;5.63;;;2.40;;
11955;SDS011;6038;52.276;10.530;2023-06-05T05:38:58;4.07;;;2.20;;
11955;SDS011;6038;52.276;10.530;2023-06-05T05:41:24;2.87;;;2.13;;
11955;SDS011;6038;52.276;10.530;2023-06-05T05:43:51;3.73;;;2.40;;
11955;SDS011;6038;52.276;10.530;2023-06-05T05:46:17;3.93;;;2.47;;
11955;SDS011;6038;52.276;10.530;2023-06-05T05:48:43;4.00;;;2.20;;
11955;SDS011;6038;52.276;10.530;2023-06-05T05:51:09;4.70;;;2.50;;
11955;SDS011;6038;52.276;10.530;2023-06-05T05:53:35;5.07;;;2.30;;
11955;SDS011;6038;52.276;10.530;2023-06-05T05:56:02;4.13;;;2.20;;
11955;SDS011;6038;52.276;10.530;2023-06-05T05:58:28;3.87;;;2.40;;
11955;SDS011;6038;52.276;10.530;2023-06-05T06:00:54;3.37;;;2.33;;
11955;SDS011;6038;52.276;10.530;2023-06-05T06:03:21;3.90;;;2.60;;
11955;SDS011;6038;52.276;10.530;2023-06-05T06:05:48;5.10;;;2.27;;
11955;SDS011;6038;52.276;10.530;2023-06-05T06:08:14;3.63;;;2.00;;
11955;SDS011;6038;52.276;10.530;2023-06-05T06:10:40;3.73;;;2.10;;
11955;SDS011;6038;52.276;10.530;2023-06-05T06:13:06;3.97;;;2.23;;
11955;SDS011;6038;52.276;10.530;2023-06-05T06:15:32;2.87;;;2.07;;
11955;SDS011;6038;52.276;10.530;2023-06-05T06:17:58;2.73;;;2.00;;
11955;SDS011;6038;52.276;10.530;2023-06-05T06:20:27;4.07;;;2.17;;
11955;SDS011;6038;52.276;10.530;2023-06-05T06:22:53;2.90;;;1.90;;
11955;SDS011;6038;52.276;10.530;2023-06-05T06:25:20;3.83;;;1.83;;
11955;SDS011;6038;52.276;10.530;2023-06-05T06:27:46;3.50;;;2.10;;
11955;SDS011;6038;52.276;10.530;2023-06-05T06:30:14;3.00;;;2.03;;
11955;SDS011;6038;52.276;10.530;2023-06-05T06:32:41;3.00;;;2.00;;
11955;SDS011;6038;52.276;10.530;2023-06-05T06:35:07;4.20;;;2.13;;
11955;SDS011;6038;52.276;10.530;2023-06-05T06:37:33;8.90;;;2.33;;
11955;SDS011;6038;52.276;10.530;2023-06-05T06:39:59;2.00;;;1.80;;
11955;SDS011;6038;52.276;10.530;2023-06-05T06:42:25;2.63;;;1.77;;
11955;SDS011;6038;52.276;10.530;2023-06-05T06:44:54;2.67;;;1.90;;
11955;SDS011;6038;52.276;10.530;2023-06-05T06:47:23;1.73;;;1.60;;
11955;SDS011;6038;52.276;10.530;2023-06-05T06:49:50;2.43;;;1.80;;
11955;SDS011;6038;52.276;10.530;2023-06-05T06:52:16;6.13;;;2.17;;
11955;SDS011;6038;52.276;10.530;2023-06-05T06:54:43;3.67;;;2.13;;
11955;SDS011;6038;52.276;10.530;2023-06-05T06:57:09;4.27;;;2.27;;
11955;SDS011;6038;52.276;10.530;2023-06-05T06:59:35;4.47;;;2.53;;
11955;SDS011;6038;52.276;10.530;2023-06-05T07:02:20;4.37;;;2.10;;
11955;SDS011;6038;52.276;10.530;2023-06-05T07:04:46;3.73;;;2.17;;
11955;SDS011;6038;52.276;10.530;2023-06-05T07:07:14;5.53;;;2.27;;
11955;SDS011;6038;52.276;10.530;2023-06-05T07:09:41;2.73;;;1.80;;
11955;SDS011;6038;52.276;10.530;2023-06-05T07:12:11;3.30;;;2.20;;
11955;SDS011;6038;52.276;10.530;2023-06-05T07:14:37;6.77;;;2.20;;
11955;SDS011;6038;52.276;10.530;2023-06-05T07:17:04;2.53;;;2.00;;
11955;SDS011;6038;52.276;10.530;2023-06-05T07:19:30;4.90;;;2.17;;
11955;SDS011;6038;52.276;10.530;2023-06-05T07:21:57;3.07;;;1.87;;
11955;SDS011;6038;52.276;10.530;2023-06-05T07:24:24;3.67;;;2.10;;
11955;SDS011;6038;52.276;10.530;2023-06-05T07:26:51;2.87;;;2.30;;
11955;SDS011;6038;52.276;10.530;2023-06-05T07:29:17;3.07;;;2.23;;
11955;SDS011;6038;52.276;10.530;2023-06-05T07:31:44;3.57;;;2.03;;
11955;SDS011;6038;52.276;10.530;2023-06-05T07:34:10;3.03;;;2.03;;
11955;SDS011;6038;52.276;10.530;2023-06-05T07:36:37;3.23;;;1.80;;
11955;SDS011;6038;52.276;10.530;2023-06-05T07:39:04;3.63;;;2.03;;
11955;SDS011;6038;52.276;10.530;2023-06-05T07:41:30;5.83;;;2.07;;
11955;SDS011;6038;52.276;10.530;2023-06-05T07:43:56;2.47;;;1.90;;
11955;SDS011;6038;52.276;10.530;2023-06-05T07:46:22;3.08;;;1.67;;
11955;SDS011;6038;52.276;10.530;2023-06-05T07:48:48;4.15;;;2.00;;
11955;SDS011;6038;52.276;10.530;2023-06-05T07:51:14;6.35;;;2.40;;
11955;SDS011;6038;52.276;10.530;2023-06-05T07:53:43;2.30;;;1.52;;
11955;SDS011;6038;52.276;10.530;2023-06-05T07:56:10;2.67;;;1.75;;
11955;SDS011;6038;52.276;10.530;2023-06-05T07:58:36;4.07;;;1.80;;
11955;SDS011;6038;52.276;10.530;2023-06-05T08:01:04;2.90;;;2.15;;
11955;SDS011;6038;52.276;10.530;2023-06-05T08:03:32;3.05;;;2.25;;
11955;SDS011;6038;52.276;10.530;2023-06-05T08:05:58;2.85;;;2.10;;
11955;SDS011;6038;52.276;10.530;2023-06-05T08:08:24;5.63;;;2.08;;
11955;SDS011;6038;52.276;10.530;2023-06-05T08:10:50;4.85;;;2.00;;
11955;SDS011;6038;52.276;10.530;2023-06-05T08:13:16;3.17;;;2.28;;
11955;SDS011;6038;52.276;10.530;2023-06-05T08:15:42;3.40;;;2.15;;
11955;SDS011;6038;52.276;10.530;2023-06-05T08:18:08;3.90;;;2.17;;
11955;SDS011;6038;52.276;10.530;2023-06-05T08:20:35;5.00;;;2.33;;
11955;SDS011;6038;52.276;10.530;2023-06-05T08:23:01;3.63;;;1.83;;
11955;SDS011;6038;52.276;10.530;2023-06-05T08:25:27;2.85;;;2.13;;
11955;SDS011;6038;52.276;10.530;2023-06-05T08:27:53;3.60;;;2.20;;
11955;SDS011;6038;52.276;10.530;2023-06-05T08:30:19;4.20;;;2.35;;
11955;SDS011;6038;52.276;10.530;2023-06-05T08:32:45;3.78;;;2.10;;
11955;SDS011;6038;52.276;10.530;2023-06-05T08:35:11;2.45;;;2.00;;
11955;SDS011;6038;52.276;10.530;2023-06-05T08:37:38;5.93;;;2.15;;
11955;SDS011;6038;52.276;10.530;2023-06-05T08:40:04;2.03;;;1.75;;
11955;SDS011;6038;52.276;10.530;2023-06-05T08:42:36;2.45;;;1.80;;
11955;SDS011;6038;52.276;10.530;2023-06-05T08:45:06;1.70;;;1.55;;
11955;SDS011;6038;52.276;10.530;2023-06-05T08:47:32;3.47;;;1.95;;
11955;SDS011;6038;52.276;10.530;2023-06-05T08:50:02;4.40;;;2.50;;
11955;SDS011;6038;52.276;10.530;2023-06-05T08:52:28;3.40;;;2.55;;
11955;SDS011;6038;52.276;10.530;2023-06-05T08:54:57;3.28;;;2.13;;
11955;SDS011;6038;52.276;10.530;2023-06-05T08:57:24;4.97;;;2.20;;
11955;SDS011;6038;52.276;10.530;2023-06-05T08:59:50;2.33;;;1.80;;
11955;SDS011;6038;52.276;10.530;2023-06-05T09:02:16;3.28;;;2.58;;
11955;SDS011;6038;52.276;10.530;2023-06-05T09:04:42;3.58;;;2.15;;
11955;SDS011;6038;52.276;10.530;2023-06-05T09:07:08;3.03;;;2.00;;
11955;SDS011;6038;52.276;10.530;2023-06-05T09:09:35;2.78;;;1.98;;
11955;SDS011;6038;52.276;10.530;2023-06-05T09:12:02;3.65;;;2.13;;
11955;SDS011;6038;52.276;10.530;2023-06-05T09:14:28;3.67;;;2.10;;
11955;SDS011;6038;52.276;10.530;2023-06-05T09:16:58;2.60;;;1.83;;
11955;SDS011;6038;52.276;10.530;2023-06-05T09:19:25;2.65;;;1.85;;
11955;SDS011;6038;52.276;10.530;2023-06-05T09:22:00;3.33;;;1.83;;
11955;SDS011;6038;52.276;10.530;2023-06-05T09:24:26;2.55;;;1.70;;
11955;SDS011;6038;52.276;10.530;2023-06-05T09:31:56;5.43;;;2.40;;
11955;SDS011;6038;52.276;10.530;2023-06-05T09:36:49;2.97;;;1.70;;
11955;SDS011;6038;52.276;10.530;2023-06-05T09:39:15;3.03;;;1.63;;
11955;SDS011;6038;52.276;10.530;2023-06-05T09:41:45;6.22;;;1.77;;
11955;SDS011;6038;52.276;10.530;2023-06-05T09:44:11;3.72;;;1.70;;
11955;SDS011;6038;52.276;10.530;2023-06-05T09:49:17;4.05;;;2.10;;
11955;SDS011;6038;52.276;10.530;2023-06-05T09:51:43;2.80;;;2.03;;
11955;SDS011;6038;52.276;10.530;2023-06-05T09:54:09;2.90;;;1.75;;
11955;SDS011;6038;52.276;10.530;2023-06-05T09:56:36;2.85;;;2.15;;
11955;SDS011;6038;52.276;10.530;2023-06-05T09:59:02;2.90;;;1.83;;
11955;SDS011;6038;52.276;10.530;2023-06-05T10:01:30;15.75;;;1.83;;
11955;SDS011;6038;52.276;10.530;2023-06-05T10:06:27;2.15;;;1.67;;
11955;SDS011;6038;52.276;10.530;2023-06-05T10:08:54;2.38;;;1.60;;
11955;SDS011;6038;52.276;10.530;2023-06-05T10:11:22;1.90;;;1.70;;
11955;SDS011;6038;52.276;10.530;2023-06-05T10:13:48;3.90;;;2.15;;
11955;SDS011;6038;52.276;10.530;2023-06-05T10:16:15;4.40;;;1.70;;
11955;SDS011;6038;52.276;10.530;2023-06-05T10:18:45;3.15;;;1.70;;
11955;SDS011;6038;52.276;10.530;2023-06-05T10:21:13;3.28;;;1.60;;
11955;SDS011;6038;52.276;10.530;2023-06-05T10:23:40;1.65;;;1.48;;
11955;SDS011;6038;52.276;10.530;2023-06-05T10:26:07;2.22;;;1.60;;
11955;SDS011;6038;52.276;10.530;2023-06-05T10:31:31;3.00;;;1.73;;
11955;SDS011;6038;52.276;10.530;2023-06-05T10:39:09;2.85;;;1.70;;
11955;SDS011;6038;52.276;10.530;2023-06-05T10:41:35;2.35;;;1.70;;
11955;SDS011;6038;52.276;10.530;2023-06-05T10:44:01;2.58;;;1.85;;
11955;SDS011;6038;52.276;10.530;2023-06-05T10:49:09;2.50;;;2.00;;
11955;SDS011;6038;52.276;10.530;2023-06-05T10:54:10;3.25;;;1.80;;
11955;SDS011;6038;52.276;10.530;2023-06-05T10:56:52;1.83;;;1.60;;
11955;SDS011;6038;52.276;10.530;2023-06-05T10:59:37;3.30;;;1.67;;
11955;SDS011;6038;52.276;10.530;2023-06-05T11:07:14;3.08;;;2.58;;
11955;SDS011;6038;52.276;10.530;2023-06-05T11:12:25;5.25;;;3.42;;
11955;SDS011;6038;52.276;10.530;2023-06-05T11:14:51;3.67;;;1.88;;
11955;SDS011;6038;52.276;10.530;2023-06-05T11:17:30;2.10;;;1.90;;
11955;SDS011;6038;52.276;10.530;2023-06-05T11:19:59;2.10;;;1.88;;
11955;SDS011;6038;52.276;10.530;2023-06-05T11:22:26;2.47;;;1.90;;
11955;SDS011;6038;52.276;10.530;2023-06-05T11:27:41;2.38;;;1.85;;
11955;SDS011;6038;52.276;10.530;2023-06-05T11:32:39;6.45;;;2.35;;
11955;SDS011;6038;52.276;10.530;2023-06-05T11:35:05;13.93;;;3.53;;
11955;SDS011;6038;52.276;10.530;2023-06-05T11:37:33;35.75;;;6.07;;
11955;SDS011;6038;52.276;10.530;2023-06-05T11:40:02;38.00;;;8.40;;
11955;SDS011;6038;52.276;10.530;2023-06-05T11:42:34;53.88;;;10.93;;
11955;SDS011;6038;52.276;10.530;2023-06-05T11:45:00;73.40;;;10.82;;
11955;SDS011;6038;52.276;10.530;2023-06-05T11:47:26;135.93;;;16.83;;
11955;SDS011;6038;52.276;10.530;2023-06-05T11:50:11;114.85;;;14.48;;
11955;SDS011;6038;52.276;10.530;2023-06-05T11:52:38;129.73;;;15.85;;
11955;SDS011;6038;52.276;10.530;2023-06-05T11:55:17;172.07;;;19.10;;
11955;SDS011;6038;52.276;10.530;2023-06-05T11:57:57;183.18;;;21.23;;
11955;SDS011;6038;52.276;10.530;2023-06-05T12:00:23;203.35;;;22.40;;
11955;SDS011;6038;52.276;10.530;2023-06-05T12:02:50;178.85;;;21.30;;
11955;SDS011;6038;52.276;10.530;2023-06-05T12:05:16;179.30;;;21.02;;
11955;SDS011;6038;52.276;10.530;2023-06-05T12:07:43;194.15;;;21.90;;
11955;SDS011;6038;52.276;10.530;2023-06-05T12:10:09;200.88;;;22.70;;
11955;SDS011;6038;52.276;10.530;2023-06-05T12:12:36;239.93;;;25.80;;
11955;SDS011;6038;52.276;10.530;2023-06-05T12:15:15;231.30;;;25.75;;
11955;SDS011;6038;52.276;10.530;2023-06-05T12:17:48;203.25;;;22.73;;
11955;SDS011;6038;52.276;10.530;2023-06-05T12:20:14;208.10;;;23.42;;
11955;SDS011;6038;52.276;10.530;2023-06-05T12:22:40;241.75;;;26.30;;
11955;SDS011;6038;52.276;10.530;2023-06-05T12:25:19;212.25;;;24.25;;
11955;SDS011;6038;52.276;10.530;2023-06-05T12:27:45;247.30;;;26.95;;
11955;SDS011;6038;52.276;10.530;2023-06-05T12:30:12;243.57;;;27.13;;
11955;SDS011;6038;52.276;10.530;2023-06-05T12:32:42;277.42;;;29.80;;
11955;SDS011;6038;52.276;10.530;2023-06-05T12:35:21;193.88;;;22.70;;
11955;SDS011;6038;52.276;10.530;2023-06-05T12:37:47;240.07;;;27.33;;
11955;SDS011;6038;52.276;10.530;2023-06-05T12:40:14;270.63;;;28.48;;
11955;SDS011;6038;52.276;10.530;2023-06-05T12:42:45;310.05;;;32.38;;
11955;SDS011;6038;52.276;10.530;2023-06-05T12:45:11;247.88;;;27.83;;
11955;SDS011;6038;52.276;10.530;2023-06-05T12:47:37;240.43;;;27.27;;
11955;SDS011;6038;52.276;10.530;2023-06-05T12:50:04;273.70;;;29.85;;
11955;SDS011;6038;52.276;10.530;2023-06-05T12:52:32;257.30;;;28.23;;
11955;SDS011;6038;52.276;10.530;2023-06-05T12:54:58;240.88;;;26.92;;
11955;SDS011;6038;52.276;10.530;2023-06-05T12:57:24;272.08;;;30.70;;
11955;SDS011;6038;52.276;10.530;2023-06-05T12:59:51;258.52;;;28.75;;
11955;SDS011;6038;52.276;10.530;2023-06-05T13:02:18;223.70;;;25.90;;
11955;SDS011;6038;52.276;10.530;2023-06-05T13:04:44;296.27;;;31.73;;
11955;SDS011;6038;52.276;10.530;2023-06-05T13:07:11;315.10;;;33.67;;
11955;SDS011;6038;52.276;10.530;2023-06-05T13:09:37;238.75;;;28.17;;
11955;SDS011;6038;52.276;10.530;2023-06-05T13:12:03;238.57;;;27.90;;
11955;SDS011;6038;52.276;10.530;2023-06-05T13:14:30;276.73;;;30.50;;
11955;SDS011;6038;52.276;10.530;2023-06-05T13:16:56;330.30;;;35.20;;
11955;SDS011;6038;52.276;10.530;2023-06-05T13:19:22;293.98;;;31.70;;
11955;SDS011;6038;52.276;10.530;2023-06-05T13:21:49;392.65;;;39.25;;
11955;SDS011;6038;52.276;10.530;2023-06-05T13:24:15;379.67;;;38.80;;
11955;SDS011;6038;52.276;10.530;2023-06-05T13:26:41;281.08;;;31.33;;
11955;SDS011;6038;52.276;10.530;2023-06-05T13:29:08;293.25;;;32.47;;
11955;SDS011;6038;52.276;10.530;2023-06-05T13:31:34;312.65;;;33.28;;
11955;SDS011;6038;52.276;10.530;2023-06-05T13:34:00;295.15;;;31.98;;
11955;SDS011;6038;52.276;10.530;2023-06-05T13:36:26;327.42;;;34.08;;
11955;SDS011;6038;52.276;10.530;2023-06-05T13:38:53;323.02;;;34.05;;
11955;SDS011;6038;52.276;10.530;2023-06-05T13:41:19;290.42;;;31.75;;
11955;SDS011;6038;52.276;10.530;2023-06-05T13:43:47;327.17;;;35.17;;
11955;SDS011;6038;52.276;10.530;2023-06-05T13:46:13;343.58;;;35.33;;
11955;SDS011;6038;52.276;10.530;2023-06-05T13:48:39;305.75;;;32.50;;
11955;SDS011;6038;52.276;10.530;2023-06-05T13:51:05;286.15;;;30.88;;
11955;SDS011;6038;52.276;10.530;2023-06-05T13:53:31;259.75;;;28.00;;
11955;SDS011;6038;52.276;10.530;2023-06-05T13:56:02;282.33;;;29.88;;
11955;SDS011;6038;52.276;10.530;2023-06-05T13:58:29;262.55;;;28.52;;
11955;SDS011;6038;52.276;10.530;2023-06-05T14:00:55;219.55;;;26.42;;
11955;SDS011;6038;52.276;10.530;2023-06-05T14:03:21;193.77;;;23.35;;
11955;SDS011;6038;52.276;10.530;2023-06-05T14:05:47;212.35;;;24.88;;
11955;SDS011;6038;52.276;10.530;2023-06-05T14:08:13;208.48;;;23.90;;
11955;SDS011;6038;52.276;10.530;2023-06-05T14:10:39;226.65;;;25.33;;
11955;SDS011;6038;52.276;10.530;2023-06-05T14:13:05;204.40;;;24.55;;
11955;SDS011;6038;52.276;10.530;2023-06-05T14:15:33;240.50;;;27.33;;
11955;SDS011;6038;52.276;10.530;2023-06-05T14:18:00;229.25;;;26.08;;
11955;SDS011;6038;52.276;10.530;2023-06-05T14:20:26;267.23;;;30.10;;
11955;SDS011;6038;52.276;10.530;2023-06-05T14:22:54;255.20;;;28.77;;
11955;SDS011;6038;52.276;10.530;2023-06-05T14:25:20;254.63;;;28.48;;
11955;SDS011;6038;52.276;10.530;2023-06-05T14:27:46;262.48;;;29.10;;
11955;SDS011;6038;52.276;10.530;2023-06-05T14:30:12;255.50;;;28.58;;
11955;SDS011;6038;52.276;10.530;2023-06-05T14:32:38;215.10;;;25.90;;
11955;SDS011;6038;52.276;10.530;2023-06-05T14:35:05;180.13;;;22.17;;
11955;SDS011;6038;52.276;10.530;2023-06-05T14:37:31;218.77;;;25.70;;
11955;SDS011;6038;52.276;10.530;2023-06-05T14:39:57;199.95;;;23.58;;
11955;SDS011;6038;52.276;10.530;2023-06-05T14:42:23;175.75;;;22.38;;
11955;SDS011;6038;52.276;10.530;2023-06-05T14:44:49;192.40;;;23.45;;
11955;SDS011;6038;52.276;10.530;2023-06-05T14:47:15;183.27;;;22.98;;
11955;SDS011;6038;52.276;10.530;2023-06-05T14:49:41;204.07;;;23.95;;
11955;SDS011;6038;52.276;10.530;2023-06-05T14:52:07;195.20;;;23.88;;
11955;SDS011;6038;52.276;10.530;2023-06-05T14:54:33;196.68;;;23.35;;
11955;SDS011;6038;52.276;10.530;2023-06-05T14:56:59;211.35;;;24.88;;
11955;SDS011;6038;52.276;10.530;2023-06-05T14:59:25;241.93;;;26.67;;
11955;SDS011;6038;52.276;10.530;2023-06-05T15:01:51;243.10;;;27.08;;
11955;SDS011;6038;52.276;10.530;2023-06-05T15:04:17;236.10;;;26.38;;
11955;SDS011;6038;52.276;10.530;2023-06-05T15:06:43;194.85;;;22.88;;
11955;SDS011;6038;52.276;10.530;2023-06-05T15:09:09;186.30;;;22.20;;
11955;SDS011;6038;52.276;10.530;2023-06-05T15:11:35;160.27;;;19.73;;
11955;SDS011;6038;52.276;10.530;2023-06-05T15:14:01;131.27;;;16.92;;
11955;SDS011;6038;52.276;10.530;2023-06-05T15:16:27;101.15;;;13.52;;
11955;SDS011;6038;52.276;10.530;2023-06-05T15:18:53;59.95;;;9.05;;